Time;durP1;ratioP1;P1;durP2;ratioP2;P2;SDS_P1;SDS_P2;PMS_P1;PMS_P2;Temp;Humidity;BMP_temperature;BMP_pressure;BME280_temperature;BME280_humidity;BME280_pressure;Samples;Min_cycle;Max_cycle;Signal;HPM_P1;HPM_P2
2023/04/10 05:00:12;;;;;;;;;11.33;8.67;;;;;;;;6047012;22;46358;-49
2023/04/10 05:02:38;;;;;;;;;11.00;11.00;;;;;;;;4998832;28;45418;-52
2023/04/10 05:05:04;;;;;;;;;13.00;12.00;;;;;;;;5002148;28;45323;-51
2023/04/10 05:07:30;;;;;;;;;14.00;14.00;;;;;;;;5003186;28;45385;-52
2023/04/10 05:09:55;;;;;;;;;14.67;12.67;;;;;;;;5002227;28;45289;-51
2023/04/10 05:12:20;;;;;;;;;15.67;13.33;;;;;;;;5002741;28;45471;-53
2023/04/10 05:14:45;;;;;;;;;9.67;9.00;;;;;;;;5002277;28;45302;-51
2023/04/10 05:17:11;;;;;;;;;11.67;11.00;;;;;;;;4984793;28;47138;-52
2023/04/10 05:19:36;;;;;;;;;13.33;12.00;;;;;;;;5002557;28;45280;-51
2023/04/10 05:22:01;;;;;;;;;14.00;12.67;;;;;;;;5005260;28;45338;-54
2023/04/10 05:24:26;;;;;;;;;13.67;13.67;;;;;;;;5004191;28;45479;-51
2023/04/10 05:26:52;;;;;;;;;11.33;11.33;;;;;;;;5003864;28;45355;-50
2023/04/10 05:29:17;;;;;;;;;13.33;13.33;;;;;;;;5014746;28;45539;-52
2023/04/10 05:31:42;;;;;;;;;15.33;14.67;;;;;;;;5003095;28;45380;-50
2023/04/10 05:34:07;;;;;;;;;12.00;11.67;;;;;;;;5001541;28;45475;-51
2023/04/10 05:36:32;;;;;;;;;10.00;10.00;;;;;;;;5002860;28;45523;-50
2023/04/10 05:38:57;;;;;;;;;17.67;15.67;;;;;;;;5006190;28;45427;-49
2023/04/10 05:41:23;;;;;;;;;12.00;12.00;;;;;;;;5006641;28;45321;-53
2023/04/10 05:43:48;;;;;;;;;13.67;11.00;;;;;;;;5016038;28;45285;-50
2023/04/10 05:46:14;;;;;;;;;10.67;10.00;;;;;;;;5006463;28;45249;-52
2023/04/10 05:48:39;;;;;;;;;13.33;11.33;;;;;;;;5013774;28;45332;-52
2023/04/10 05:51:04;;;;;;;;;17.00;14.00;;;;;;;;5002423;28;45569;-51
2023/04/10 05:53:30;;;;;;;;;15.33;12.67;;;;;;;;5008780;28;45518;-53
2023/04/10 05:55:56;;;;;;;;;15.00;15.00;;;;;;;;5001434;28;46280;-52
2023/04/10 05:58:21;;;;;;;;;13.33;13.33;;;;;;;;5001113;28;45803;-50
2023/04/10 06:00:46;;;;;;;;;17.00;11.67;;;;;;;;5001487;28;45286;-53
2023/04/10 06:03:11;;;;;;;;;12.00;10.67;;;;;;;;5003762;28;45402;-53
2023/04/10 06:05:36;;;;;;;;;14.00;13.33;;;;;;;;5001212;28;45281;-53
2023/04/10 06:08:01;;;;;;;;;15.33;14.33;;;;;;;;5005016;28;46841;-53
2023/04/10 06:10:28;;;;;;;;;11.67;10.67;;;;;;;;4996666;28;45629;-49
2023/04/10 06:12:53;;;;;;;;;12.67;10.33;;;;;;;;5000180;28;45340;-51
2023/04/10 06:15:18;;;;;;;;;14.33;13.00;;;;;;;;5000487;28;45969;-52
2023/04/10 06:17:43;;;;;;;;;12.00;12.00;;;;;;;;5001248;28;45265;-49
2023/04/10 06:20:09;;;;;;;;;15.33;15.33;;;;;;;;4991369;28;45309;-52
2023/04/10 06:22:34;;;;;;;;;15.00;15.00;;;;;;;;5000967;28;45457;-52
2023/04/10 06:25:00;;;;;;;;;15.67;13.67;;;;;;;;5000212;28;46886;-53
2023/04/10 06:27:25;;;;;;;;;16.00;14.67;;;;;;;;5003634;28;46387;-53
2023/04/10 06:29:51;;;;;;;;;12.67;12.00;;;;;;;;5003490;28;45285;-49
2023/04/10 06:32:16;;;;;;;;;16.00;13.33;;;;;;;;4996623;28;45711;-52
2023/04/10 06:34:41;;;;;;;;;12.67;12.67;;;;;;;;5008760;28;46206;-53
2023/04/10 06:37:06;;;;;;;;;11.33;11.00;;;;;;;;5005890;28;45715;-52
2023/04/10 06:39:31;;;;;;;;;13.67;13.67;;;;;;;;5004689;28;45474;-53
2023/04/10 06:41:57;;;;;;;;;11.67;11.67;;;;;;;;4988719;28;45332;-53
2023/04/10 06:44:22;;;;;;;;;14.33;14.00;;;;;;;;5008870;28;46284;-54
2023/04/10 06:46:47;;;;;;;;;14.00;11.67;;;;;;;;5012308;28;45329;-54
2023/04/10 06:49:12;;;;;;;;;15.33;12.67;;;;;;;;5000941;28;45494;-53
2023/04/10 06:51:37;;;;;;;;;13.00;12.00;;;;;;;;5008454;28;45725;-53
2023/04/10 06:54:02;;;;;;;;;17.33;14.67;;;;;;;;4981651;28;46115;-52
2023/04/10 06:56:28;;;;;;;;;12.67;11.00;;;;;;;;5000373;28;45358;-49
2023/04/10 06:58:53;;;;;;;;;16.00;11.67;;;;;;;;5000257;28;45446;-50
2023/04/10 07:01:18;;;;;;;;;20.00;14.67;;;;;;;;5003086;28;45386;-47
2023/04/10 07:03:43;;;;;;;;;15.67;15.33;;;;;;;;4999813;28;45348;-49
2023/04/10 07:06:09;;;;;;;;;12.67;12.67;;;;;;;;4999622;28;45545;-50
2023/04/10 07:08:34;;;;;;;;;14.33;12.33;;;;;;;;5000143;28;45533;-50
2023/04/10 07:11:00;;;;;;;;;13.67;12.33;;;;;;;;5016270;28;45430;-48
2023/04/10 07:13:25;;;;;;;;;14.67;13.67;;;;;;;;5007476;28;46089;-51
2023/04/10 07:15:50;;;;;;;;;13.33;12.00;;;;;;;;4999152;28;45458;-50
2023/04/10 07:18:15;;;;;;;;;13.00;12.67;;;;;;;;5001169;28;45413;-52
2023/04/10 07:20:41;;;;;;;;;10.00;9.67;;;;;;;;5009936;28;45472;-50
2023/04/10 07:23:06;;;;;;;;;13.00;13.00;;;;;;;;4997350;28;45987;-52
2023/04/10 07:25:32;;;;;;;;;10.67;9.67;;;;;;;;5000609;28;45567;-48
2023/04/10 07:27:57;;;;;;;;;12.00;12.00;;;;;;;;5002382;28;45634;-50
2023/04/10 07:30:22;;;;;;;;;14.00;12.33;;;;;;;;4999438;28;45408;-53
2023/04/10 07:32:48;;;;;;;;;14.33;14.33;;;;;;;;4999400;28;46202;-51
2023/04/10 07:35:13;;;;;;;;;11.67;10.67;;;;;;;;5004098;28;45482;-49
2023/04/10 07:37:38;;;;;;;;;13.67;13.33;;;;;;;;5006738;28;45454;-52
2023/04/10 07:40:04;;;;;;;;;12.67;11.67;;;;;;;;4999128;28;45500;-50
2023/04/10 07:42:29;;;;;;;;;11.00;10.00;;;;;;;;4997975;28;45340;-51
2023/04/10 07:44:54;;;;;;;;;13.67;13.33;;;;;;;;4999994;28;45384;-50
2023/04/10 07:47:20;;;;;;;;;11.67;10.33;;;;;;;;5013233;28;46415;-50
2023/04/10 07:49:45;;;;;;;;;13.00;11.33;;;;;;;;5010682;28;45384;-49
2023/04/10 07:52:10;;;;;;;;;12.00;9.67;;;;;;;;5000514;28;46060;-51
2023/04/10 07:54:36;;;;;;;;;7.33;6.33;;;;;;;;5002991;28;45496;-50
2023/04/10 07:57:01;;;;;;;;;9.67;9.67;;;;;;;;5001324;28;45403;-51
2023/04/10 07:59:27;;;;;;;;;11.33;8.67;;;;;;;;5006757;28;45407;-49
2023/04/10 08:01:52;;;;;;;;;10.33;10.00;;;;;;;;4984223;28;46144;-51
2023/04/10 08:04:18;;;;;;;;;12.33;9.00;;;;;;;;4979095;28;45397;-52
2023/04/10 08:06:43;;;;;;;;;15.00;12.33;;;;;;;;4999936;28;45433;-52
2023/04/10 08:09:09;;;;;;;;;11.67;11.67;;;;;;;;4980442;28;45505;-52
2023/04/10 08:11:35;;;;;;;;;12.33;12.33;;;;;;;;4981998;28;47752;-52
2023/04/10 08:14:01;;;;;;;;;10.67;10.67;;;;;;;;4976607;28;45508;-51
2023/04/10 08:16:27;;;;;;;;;10.00;10.00;;;;;;;;4995308;28;45482;-51
2023/04/10 08:18:53;;;;;;;;;8.33;8.00;;;;;;;;4997006;28;45352;-51
2023/04/10 08:21:18;;;;;;;;;11.33;9.67;;;;;;;;5004831;28;47321;-48
2023/04/10 08:23:45;;;;;;;;;11.67;9.00;;;;;;;;5006733;28;45340;-49
2023/04/10 08:26:10;;;;;;;;;9.00;9.00;;;;;;;;4987249;28;45512;-49
2023/04/10 08:28:36;;;;;;;;;13.00;10.33;;;;;;;;4995763;28;45527;-51
2023/04/10 08:31:02;;;;;;;;;10.00;10.00;;;;;;;;4993739;28;46394;-51
2023/04/10 08:33:27;;;;;;;;;14.67;13.33;;;;;;;;4997318;28;45463;-56
2023/04/10 08:35:52;;;;;;;;;12.67;11.33;;;;;;;;4998630;28;45578;-51
2023/04/10 08:38:17;;;;;;;;;5.00;5.00;;;;;;;;4995692;28;45399;-51
2023/04/10 08:40:43;;;;;;;;;11.67;9.67;;;;;;;;4998327;28;46361;-51
2023/04/10 08:43:08;;;;;;;;;9.33;9.33;;;;;;;;4996398;28;45471;-52
2023/04/10 08:45:33;;;;;;;;;9.00;9.00;;;;;;;;4999943;28;45834;-51
2023/04/10 08:48:01;;;;;;;;;7.00;7.00;;;;;;;;4997469;28;45303;-50
2023/04/10 08:50:28;;;;;;;;;9.67;9.33;;;;;;;;4998057;28;45348;-51
2023/04/10 08:52:54;;;;;;;;;8.33;7.33;;;;;;;;4998035;28;45368;-51
2023/04/10 08:55:20;;;;;;;;;9.67;9.67;;;;;;;;4998005;28;45384;-52
2023/04/10 08:57:46;;;;;;;;;11.33;9.67;;;;;;;;4997940;28;45307;-48
2023/04/10 09:00:11;;;;;;;;;9.00;9.00;;;;;;;;4997158;28;46261;-49
2023/04/10 09:02:37;;;;;;;;;9.67;9.67;;;;;;;;4997446;28;45480;-55
2023/04/10 09:05:03;;;;;;;;;6.33;6.33;;;;;;;;4976792;28;45496;-54
2023/04/10 09:07:28;;;;;;;;;7.33;7.33;;;;;;;;4980306;28;45647;-52
2023/04/10 09:09:53;;;;;;;;;8.33;7.33;;;;;;;;4997427;28;45522;-50
2023/04/10 09:12:18;;;;;;;;;6.67;6.67;;;;;;;;4983632;28;45337;-50
2023/04/10 09:14:43;;;;;;;;;8.00;8.00;;;;;;;;5001276;28;45491;-49
2023/04/10 09:17:13;;;;;;;;;8.67;8.67;;;;;;;;4997450;28;45411;-51
2023/04/10 09:19:38;;;;;;;;;8.67;8.67;;;;;;;;4995710;28;47175;-53
2023/04/10 09:22:04;;;;;;;;;7.67;7.00;;;;;;;;4996143;28;45422;-53
2023/04/10 09:24:29;;;;;;;;;8.67;7.00;;;;;;;;4997697;28;45314;-55
2023/04/10 09:26:54;;;;;;;;;8.33;7.00;;;;;;;;5000912;28;45197;-56
2023/04/10 09:29:19;;;;;;;;;8.67;7.00;;;;;;;;4997231;28;46877;-54
2023/04/10 09:31:44;;;;;;;;;8.00;7.00;;;;;;;;4980864;28;45435;-55
2023/04/10 09:34:10;;;;;;;;;7.00;7.00;;;;;;;;4999181;28;45597;-55
2023/04/10 09:36:40;;;;;;;;;7.00;7.00;;;;;;;;4999923;28;45531;-55
2023/04/10 09:39:05;;;;;;;;;4.00;4.00;;;;;;;;4985723;28;47352;-59
2023/04/10 09:41:31;;;;;;;;;7.00;7.00;;;;;;;;5008664;28;45514;-55
2023/04/10 09:44:06;;;;;;;;;9.00;9.00;;;;;;;;5002721;28;45466;-52
2023/04/10 09:46:32;;;;;;;;;5.00;5.00;;;;;;;;4991444;28;45479;-55
2023/04/10 09:48:58;;;;;;;;;5.00;5.00;;;;;;;;5000470;28;45468;-55
2023/04/10 09:51:28;;;;;;;;;7.00;6.00;;;;;;;;5001667;28;45370;-51
2023/04/10 09:53:53;;;;;;;;;5.67;5.67;;;;;;;;5005753;28;45367;-56
2023/04/10 09:56:20;;;;;;;;;7.33;7.00;;;;;;;;5007405;28;45522;-56
2023/04/10 09:58:46;;;;;;;;;7.00;7.00;;;;;;;;5000525;28;46350;-58
2023/04/10 10:01:11;;;;;;;;;6.67;6.67;;;;;;;;4979985;28;45701;-51
2023/04/10 10:03:37;;;;;;;;;5.33;5.33;;;;;;;;5012699;28;45447;-53
2023/04/10 10:06:03;;;;;;;;;6.00;6.00;;;;;;;;5002063;28;45781;-53
2023/04/10 10:08:30;;;;;;;;;6.33;6.33;;;;;;;;5002073;28;46348;-53
2023/04/10 10:10:57;;;;;;;;;7.00;6.00;;;;;;;;5001507;28;45432;-50
2023/04/10 10:13:26;;;;;;;;;7.33;7.33;;;;;;;;5003480;28;45554;-54
2023/04/10 10:15:55;;;;;;;;;6.00;6.00;;;;;;;;5000748;28;45577;-53
2023/04/10 10:18:39;;;;;;;;;6.00;6.00;;;;;;;;4997891;28;46858;-52
2023/04/10 10:21:06;;;;;;;;;6.33;6.00;;;;;;;;4990967;28;45445;-53
2023/04/10 10:23:32;;;;;;;;;7.00;6.00;;;;;;;;5002735;28;45484;-53
2023/04/10 10:25:59;;;;;;;;;6.00;4.67;;;;;;;;5004099;28;45491;-54
2023/04/10 10:28:26;;;;;;;;;4.00;4.00;;;;;;;;4995687;28;47118;-53
2023/04/10 10:30:52;;;;;;;;;6.00;6.00;;;;;;;;5010008;28;45642;-51
2023/04/10 10:33:17;;;;;;;;;5.33;5.33;;;;;;;;5003233;28;45603;-52
2023/04/10 10:35:43;;;;;;;;;5.00;5.00;;;;;;;;5004714;28;45269;-48
2023/04/10 10:38:08;;;;;;;;;2.00;2.00;;;;;;;;5002555;28;46065;-53
2023/04/10 10:40:34;;;;;;;;;4.00;4.00;;;;;;;;4999826;28;45352;-53
2023/04/10 10:43:07;;;;;;;;;6.33;6.00;;;;;;;;5000641;28;45716;-52
2023/04/10 10:45:38;;;;;;;;;5.67;5.00;;;;;;;;5011433;28;45607;-52
2023/04/10 10:48:03;;;;;;;;;4.67;4.67;;;;;;;;5004437;28;46130;-50
2023/04/10 10:50:48;;;;;;;;;6.33;4.33;;;;;;;;5012251;28;45443;-51
2023/04/10 10:53:33;;;;;;;;;5.00;4.67;;;;;;;;5007600;28;45687;-51
2023/04/10 10:55:58;;;;;;;;;4.67;4.67;;;;;;;;5003459;28;46350;-52
2023/04/10 10:58:42;;;;;;;;;4.00;4.00;;;;;;;;4999991;28;46231;-53
2023/04/10 11:01:07;;;;;;;;;5.67;5.00;;;;;;;;5002646;28;45529;-53
2023/04/10 11:03:32;;;;;;;;;6.00;4.67;;;;;;;;4996618;28;45406;-49
2023/04/10 11:06:02;;;;;;;;;4.67;4.00;;;;;;;;5003834;28;45483;-50
2023/04/10 11:08:46;;;;;;;;;6.67;5.67;;;;;;;;5002208;28;46977;-52
2023/04/10 11:11:11;;;;;;;;;5.00;5.00;;;;;;;;5007226;28;45398;-50
2023/04/10 11:14:00;;;;;;;;;4.67;4.67;;;;;;;;5001201;28;45399;-52
2023/04/10 11:16:32;;;;;;;;;8.00;7.00;;;;;;;;4985939;28;45443;-50
2023/04/10 11:19:00;;;;;;;;;8.33;8.33;;;;;;;;5000947;28;47088;-54
2023/04/10 11:21:27;;;;;;;;;8.00;6.67;;;;;;;;5000833;28;45267;-53
2023/04/10 11:23:53;;;;;;;;;6.00;4.67;;;;;;;;4981240;28;45520;-51
2023/04/10 11:26:34;;;;;;;;;6.33;6.33;;;;;;;;5000980;28;45603;-51
2023/04/10 11:29:00;;;;;;;;;6.00;6.00;;;;;;;;5004620;28;46452;-51
2023/04/10 11:31:26;;;;;;;;;4.00;4.00;;;;;;;;4999235;28;45345;-54
2023/04/10 11:34:00;;;;;;;;;6.67;5.67;;;;;;;;5004284;28;45549;-53
2023/04/10 11:36:26;;;;;;;;;5.00;4.00;;;;;;;;4983668;28;45568;-51
2023/04/10 11:38:58;;;;;;;;;4.67;4.00;;;;;;;;5006436;28;46210;-49
2023/04/10 11:41:33;;;;;;;;;3.00;3.00;;;;;;;;4999666;28;45623;-51
2023/04/10 11:43:59;;;;;;;;;9.33;3.67;;;;;;;;5001306;28;46823;-54
2023/04/10 11:46:25;;;;;;;;;5.00;5.00;;;;;;;;4990383;28;45410;-52
2023/04/10 11:49:00;;;;;;;;;5.00;4.67;;;;;;;;4999707;28;46577;-51
2023/04/10 11:51:27;;;;;;;;;3.67;3.67;;;;;;;;4998804;28;45312;-52
2023/04/10 11:54:04;;;;;;;;;3.33;3.33;;;;;;;;4999594;28;45511;-54
2023/04/10 11:56:30;;;;;;;;;6.67;5.00;;;;;;;;4999029;28;45557;-51
2023/04/10 11:58:55;;;;;;;;;2.67;2.67;;;;;;;;5000195;28;47015;-52
2023/04/10 12:01:21;;;;;;;;;4.00;4.00;;;;;;;;4973603;28;45624;-50
2023/04/10 12:03:46;;;;;;;;;4.00;4.00;;;;;;;;4976735;28;45423;-53
2023/04/10 12:06:13;;;;;;;;;4.33;4.00;;;;;;;;4979026;28;45515;-53
2023/04/10 12:08:43;;;;;;;;;4.00;4.00;;;;;;;;4984923;28;46995;-51
2023/04/10 12:11:09;;;;;;;;;6.00;5.00;;;;;;;;4981269;28;45380;-54
2023/04/10 12:13:35;;;;;;;;;7.00;5.67;;;;;;;;4979327;28;45340;-53
2023/04/10 12:16:02;;;;;;;;;5.33;5.33;;;;;;;;4981292;28;45377;-52
2023/04/10 12:18:28;;;;;;;;;5.67;5.00;;;;;;;;4975134;28;46728;-52
2023/04/10 12:20:56;;;;;;;;;5.00;5.00;;;;;;;;4977980;28;45261;-51
2023/04/10 12:23:24;;;;;;;;;4.67;4.67;;;;;;;;4984001;28;45546;-52
2023/04/10 12:25:50;;;;;;;;;6.00;6.00;;;;;;;;4977221;28;45563;-51
2023/04/10 12:28:19;;;;;;;;;4.00;4.00;;;;;;;;4978020;28;46705;-57
2023/04/10 12:30:49;;;;;;;;;4.67;4.67;;;;;;;;4985649;28;45383;-54
2023/04/10 12:33:19;;;;;;;;;3.67;3.67;;;;;;;;4981713;28;45665;-50
2023/04/10 12:35:44;;;;;;;;;5.00;5.00;;;;;;;;4979810;28;45512;-52
2023/04/10 12:38:09;;;;;;;;;3.33;3.33;;;;;;;;4977544;28;46857;-51
2023/04/10 12:40:34;;;;;;;;;4.67;4.67;;;;;;;;4979561;28;45234;-50
2023/04/10 12:43:00;;;;;;;;;2.00;2.00;;;;;;;;4979673;28;45382;-50
2023/04/10 12:45:41;;;;;;;;;4.00;4.00;;;;;;;;4973760;28;45529;-51
2023/04/10 12:48:07;;;;;;;;;6.00;4.67;;;;;;;;4978704;28;47016;-51
2023/04/10 12:50:32;;;;;;;;;4.00;3.33;;;;;;;;4979307;28;45278;-51
2023/04/10 12:53:01;;;;;;;;;3.33;3.33;;;;;;;;4979618;28;45277;-50
2023/04/10 12:55:27;;;;;;;;;5.00;5.00;;;;;;;;4979153;28;45376;-52
2023/04/10 12:57:53;;;;;;;;;5.00;2.00;;;;;;;;4979292;28;47095;-47
2023/04/10 13:00:19;;;;;;;;;3.00;3.00;;;;;;;;4979525;28;46263;-49
2023/04/10 13:02:45;;;;;;;;;3.00;3.00;;;;;;;;4997014;28;45301;-51
2023/04/10 13:05:10;;;;;;;;;4.67;3.00;;;;;;;;4998081;28;45413;-49
2023/04/10 13:07:36;;;;;;;;;3.00;3.00;;;;;;;;4998872;28;46322;-53
2023/04/10 13:10:01;;;;;;;;;4.00;4.00;;;;;;;;4998581;28;45355;-53
2023/04/10 13:12:28;;;;;;;;;6.00;4.33;;;;;;;;5000858;28;45459;-51
2023/04/10 13:14:53;;;;;;;;;4.00;4.00;;;;;;;;4999834;28;45224;-50
2023/04/10 13:17:19;;;;;;;;;5.67;4.00;;;;;;;;5000951;28;46868;-49
2023/04/10 13:19:45;;;;;;;;;5.00;3.67;;;;;;;;5002168;28;45327;-48
2023/04/10 13:22:10;;;;;;;;;5.00;5.00;;;;;;;;5001693;28;45327;-49
2023/04/10 13:24:35;;;;;;;;;5.00;5.00;;;;;;;;4984492;28;45675;-54
2023/04/10 13:27:01;;;;;;;;;6.00;5.00;;;;;;;;5001533;28;47436;-53
2023/04/10 13:29:26;;;;;;;;;5.33;4.00;;;;;;;;5001711;28;45166;-52
2023/04/10 13:31:51;;;;;;;;;5.67;4.00;;;;;;;;4999631;28;45324;-51
2023/04/10 13:34:16;;;;;;;;;3.00;3.00;;;;;;;;4983770;28;45187;-50
2023/04/10 13:36:41;;;;;;;;;4.33;4.33;;;;;;;;5001809;28;46309;-54
2023/04/10 13:39:07;;;;;;;;;4.00;3.00;;;;;;;;5001216;28;45278;-53
2023/04/10 13:41:32;;;;;;;;;5.33;4.00;;;;;;;;5001834;28;45589;-51
2023/04/10 13:43:57;;;;;;;;;3.00;3.00;;;;;;;;5001819;28;45314;-52
2023/04/10 13:46:22;;;;;;;;;3.00;3.00;;;;;;;;5006091;28;45398;-53
2023/04/10 13:48:47;;;;;;;;;4.00;4.00;;;;;;;;5004435;28;45478;-53
2023/04/10 13:51:13;;;;;;;;;4.00;4.00;;;;;;;;5001236;28;45363;-50
2023/04/10 13:53:38;;;;;;;;;2.00;2.00;;;;;;;;5001561;28;45622;-50
2023/04/10 13:56:04;;;;;;;;;2.00;2.00;;;;;;;;5000715;28;46117;-53
2023/04/10 13:58:30;;;;;;;;;2.33;2.33;;;;;;;;5001343;28;45320;-51
2023/04/10 14:00:56;;;;;;;;;3.00;3.00;;;;;;;;5001001;28;45348;-52
2023/04/10 14:03:21;;;;;;;;;3.00;3.00;;;;;;;;5001042;28;46064;-49
2023/04/10 14:05:47;;;;;;;;;3.00;3.00;;;;;;;;4981141;28;45414;-51
2023/04/10 14:08:14;;;;;;;;;2.00;2.00;;;;;;;;5000799;28;45396;-48
2023/04/10 14:10:40;;;;;;;;;3.00;3.00;;;;;;;;5001045;28;45426;-50
2023/04/10 14:13:05;;;;;;;;;6.33;4.00;;;;;;;;5000740;28;45383;-51
2023/04/10 14:15:31;;;;;;;;;4.00;4.00;;;;;;;;5000782;28;45971;-48
2023/04/10 14:17:56;;;;;;;;;2.33;2.33;;;;;;;;5002964;28;45368;-52
2023/04/10 14:20:21;;;;;;;;;3.67;3.67;;;;;;;;5003182;28;45737;-52
2023/04/10 14:22:46;;;;;;;;;2.33;2.33;;;;;;;;4998992;28;45281;-50
2023/04/10 14:25:14;;;;;;;;;5.00;5.00;;;;;;;;5001633;28;47012;-52
2023/04/10 14:27:39;;;;;;;;;2.67;2.67;;;;;;;;5000679;28;45386;-49
2023/04/10 14:30:05;;;;;;;;;2.67;2.67;;;;;;;;5000455;28;45316;-52
2023/04/10 14:32:30;;;;;;;;;3.00;3.00;;;;;;;;5000882;28;45492;-49
2023/04/10 14:34:55;;;;;;;;;3.33;3.33;;;;;;;;4998467;28;45574;-49
2023/04/10 14:37:21;;;;;;;;;5.33;4.00;;;;;;;;4987309;28;45366;-50
2023/04/10 14:39:46;;;;;;;;;4.00;4.00;;;;;;;;5000555;28;45371;-51
2023/04/10 14:42:11;;;;;;;;;8.00;6.00;;;;;;;;5000337;28;45276;-50
2023/04/10 14:44:37;;;;;;;;;4.00;4.00;;;;;;;;5000776;28;45439;-49
2023/04/10 14:47:05;;;;;;;;;3.33;3.33;;;;;;;;5005116;28;45400;-51
2023/04/10 14:49:30;;;;;;;;;4.67;4.00;;;;;;;;5004194;28;45297;-51
2023/04/10 14:51:55;;;;;;;;;7.00;5.00;;;;;;;;4983262;28;45787;-49
2023/04/10 14:54:22;;;;;;;;;4.67;3.00;;;;;;;;5002129;28;47982;-52
2023/04/10 14:56:48;;;;;;;;;1.33;1.33;;;;;;;;5000274;28;45486;-51
2023/04/10 14:59:13;;;;;;;;;3.33;3.33;;;;;;;;5000075;28;45620;-49
2023/04/10 15:01:38;;;;;;;;;2.00;2.00;;;;;;;;5000377;28;45816;-48
2023/04/10 15:04:03;;;;;;;;;4.00;3.00;;;;;;;;4982155;28;47507;-51
2023/04/10 15:06:31;;;;;;;;;3.00;3.00;;;;;;;;4982797;28;45625;-56
2023/04/10 15:08:56;;;;;;;;;4.00;4.00;;;;;;;;5002120;28;45808;-52
2023/04/10 15:11:21;;;;;;;;;6.00;4.00;;;;;;;;4999596;28;45554;-49
2023/04/10 15:13:47;;;;;;;;;3.00;3.00;;;;;;;;4982267;28;46366;-49
2023/04/10 15:16:12;;;;;;;;;1.33;1.33;;;;;;;;4999575;28;45392;-50
2023/04/10 15:18:37;;;;;;;;;3.33;3.33;;;;;;;;5000391;28;45313;-50
2023/04/10 15:21:02;;;;;;;;;4.00;4.00;;;;;;;;5000111;28;45269;-51
2023/04/10 15:23:28;;;;;;;;;5.00;3.67;;;;;;;;5000250;28;45289;-48
2023/04/10 15:25:53;;;;;;;;;3.00;3.00;;;;;;;;4980544;28;45353;-51
2023/04/10 15:28:19;;;;;;;;;4.00;4.00;;;;;;;;5001800;28;45307;-49
2023/04/10 15:30:44;;;;;;;;;5.33;4.33;;;;;;;;5000025;28;45237;-52
2023/04/10 15:33:09;;;;;;;;;4.00;4.00;;;;;;;;4999652;28;46350;-50
2023/04/10 15:35:35;;;;;;;;;7.00;4.00;;;;;;;;4999683;28;45138;-49
2023/04/10 15:38:01;;;;;;;;;3.33;3.33;;;;;;;;5005277;28;45447;-51
2023/04/10 15:40:27;;;;;;;;;6.00;3.00;;;;;;;;4982040;28;45323;-50
2023/04/10 15:42:52;;;;;;;;;4.00;4.00;;;;;;;;4984941;28;47003;-48
2023/04/10 15:45:17;;;;;;;;;4.00;3.67;;;;;;;;4999129;28;45526;-48
2023/04/10 15:47:44;;;;;;;;;6.33;3.00;;;;;;;;4999759;28;45349;-49
2023/04/10 15:50:09;;;;;;;;;3.00;3.00;;;;;;;;4999572;28;45313;-51
2023/04/10 15:52:35;;;;;;;;;5.00;3.00;;;;;;;;4999283;28;45565;-49
2023/04/10 15:55:00;;;;;;;;;3.00;3.00;;;;;;;;4982418;28;45319;-48
2023/04/10 15:57:25;;;;;;;;;5.67;5.67;;;;;;;;4999400;28;45358;-50
2023/04/10 15:59:52;;;;;;;;;4.00;3.00;;;;;;;;5003886;28;45363;-51
2023/04/10 16:02:17;;;;;;;;;5.00;4.67;;;;;;;;4998542;28;46960;-50
2023/04/10 16:04:42;;;;;;;;;5.33;4.33;;;;;;;;4990409;28;45447;-52
2023/04/10 16:07:07;;;;;;;;;4.33;4.00;;;;;;;;4980946;28;45350;-51
2023/04/10 16:09:32;;;;;;;;;3.00;3.00;;;;;;;;4999474;28;45299;-50
2023/04/10 16:11:58;;;;;;;;;3.00;3.00;;;;;;;;4999466;28;46683;-48
2023/04/10 16:14:23;;;;;;;;;2.33;2.33;;;;;;;;4979335;28;45795;-49
2023/04/10 16:16:49;;;;;;;;;3.00;3.00;;;;;;;;4999047;28;45516;-52
2023/04/10 16:19:14;;;;;;;;;3.00;3.00;;;;;;;;4998993;28;45280;-50
2023/04/10 16:21:39;;;;;;;;;4.00;4.00;;;;;;;;4999435;28;46196;-48
2023/04/10 16:24:04;;;;;;;;;4.33;4.33;;;;;;;;4998866;28;45402;-50
2023/04/10 16:26:29;;;;;;;;;3.67;3.00;;;;;;;;4999327;28;45273;-48
2023/04/10 16:28:55;;;;;;;;;5.00;3.33;;;;;;;;5002010;28;45471;-51
2023/04/10 16:31:20;;;;;;;;;3.00;2.33;;;;;;;;4996794;28;45393;-52
2023/04/10 16:33:45;;;;;;;;;4.00;4.00;;;;;;;;4999497;28;45657;-52
2023/04/10 16:36:10;;;;;;;;;3.00;3.00;;;;;;;;5002045;28;45206;-53
2023/04/10 16:38:35;;;;;;;;;3.67;3.00;;;;;;;;4999564;28;45304;-53
2023/04/10 16:41:02;;;;;;;;;4.33;2.67;;;;;;;;4999023;28;45316;-52
2023/04/10 16:43:27;;;;;;;;;2.00;2.00;;;;;;;;4999204;28;45303;-50
2023/04/10 16:45:53;;;;;;;;;2.67;2.67;;;;;;;;5000693;28;45151;-50
2023/04/10 16:48:18;;;;;;;;;3.00;2.00;;;;;;;;4999268;28;45404;-51
2023/04/10 16:50:43;;;;;;;;;3.67;2.00;;;;;;;;4998687;28;45451;-48
2023/04/10 16:53:09;;;;;;;;;5.00;3.67;;;;;;;;4997568;28;45277;-48
2023/04/10 16:55:34;;;;;;;;;1.33;1.33;;;;;;;;4998252;28;45812;-52
2023/04/10 16:57:59;;;;;;;;;1.67;1.00;;;;;;;;4997804;28;45545;-51
2023/04/10 17:00:25;;;;;;;;;3.33;1.00;;;;;;;;4997796;28;46134;-47
2023/04/10 17:02:50;;;;;;;;;1.00;1.00;;;;;;;;4998721;28;45471;-48
2023/04/10 17:05:15;;;;;;;;;1.00;0.00;;;;;;;;4993212;28;45648;-47
2023/04/10 17:07:40;;;;;;;;;0.00;0.00;;;;;;;;4999472;28;45296;-49
2023/04/10 17:10:06;;;;;;;;;0.00;0.00;;;;;;;;4998114;28;46811;-51
2023/04/10 17:12:31;;;;;;;;;1.00;1.00;;;;;;;;4995905;28;45789;-54
2023/04/10 17:14:56;;;;;;;;;1.00;1.00;;;;;;;;4998451;28;45598;-54
2023/04/10 17:17:21;;;;;;;;;2.33;1.00;;;;;;;;4987642;28;45848;-53
2023/04/10 17:19:47;;;;;;;;;2.00;1.00;;;;;;;;4998572;28;46019;-53
2023/04/10 17:22:15;;;;;;;;;1.00;1.00;;;;;;;;5001814;28;45763;-54
2023/04/10 17:24:41;;;;;;;;;3.00;2.33;;;;;;;;5004984;28;45767;-50
2023/04/10 17:27:06;;;;;;;;;3.00;1.67;;;;;;;;5004256;28;45837;-53
2023/04/10 17:29:34;;;;;;;;;1.67;1.67;;;;;;;;4978987;28;47428;-54
2023/04/10 17:31:59;;;;;;;;;5.67;2.33;;;;;;;;5001513;28;45678;-53
2023/04/10 17:34:25;;;;;;;;;1.00;1.00;;;;;;;;4997910;28;45340;-52
2023/04/10 17:36:50;;;;;;;;;2.67;2.67;;;;;;;;4980021;28;45298;-54
2023/04/10 17:39:15;;;;;;;;;5.67;2.67;;;;;;;;4994154;28;46289;-54
2023/04/10 17:41:40;;;;;;;;;1.67;1.67;;;;;;;;4995345;28;45303;-53
2023/04/10 17:44:06;;;;;;;;;4.33;2.67;;;;;;;;4996579;28;45466;-54
2023/04/10 17:46:31;;;;;;;;;6.00;3.00;;;;;;;;4997750;28;45403;-53
2023/04/10 17:48:59;;;;;;;;;2.00;2.00;;;;;;;;4996415;28;45744;-54
2023/04/10 17:51:25;;;;;;;;;2.33;2.33;;;;;;;;4997522;28;45391;-54
2023/04/10 17:53:50;;;;;;;;;2.33;2.00;;;;;;;;5000399;28;45600;-54
2023/04/10 17:56:16;;;;;;;;;3.33;3.33;;;;;;;;4998389;28;45450;-52
2023/04/10 17:58:42;;;;;;;;;3.00;3.00;;;;;;;;5000380;28;46343;-54
2023/04/10 18:01:07;;;;;;;;;2.00;2.00;;;;;;;;4999692;28;45252;-55
2023/04/10 18:03:32;;;;;;;;;4.67;4.67;;;;;;;;4999973;28;45757;-55
2023/04/10 18:05:58;;;;;;;;;4.33;4.33;;;;;;;;4979616;28;45469;-54
2023/04/10 18:08:23;;;;;;;;;2.00;2.00;;;;;;;;4996587;28;46189;-54
2023/04/10 18:10:48;;;;;;;;;6.00;5.50;;;;;;;;5002195;28;45428;-53
2023/04/10 18:13:13;;;;;;;;;7.00;4.00;;;;;;;;4984967;28;45501;-53
2023/04/10 18:15:38;;;;;;;;;4.33;4.33;;;;;;;;4998638;28;45566;-54
2023/04/10 18:18:04;;;;;;;;;4.67;4.67;;;;;;;;4976579;28;46637;-54
2023/04/10 18:20:29;;;;;;;;;7.00;7.00;;;;;;;;4983395;28;45483;-54
2023/04/10 18:22:54;;;;;;;;;4.33;4.33;;;;;;;;5000048;28;45347;-54
2023/04/10 18:25:19;;;;;;;;;4.67;3.67;;;;;;;;4980854;28;45424;-56
2023/04/10 18:27:47;;;;;;;;;6.00;2.67;;;;;;;;5000869;28;45987;-54
2023/04/10 18:30:13;;;;;;;;;5.33;3.00;;;;;;;;4984005;28;45690;-53
2023/04/10 18:32:38;;;;;;;;;6.00;4.67;;;;;;;;4985438;28;45611;-55
2023/04/10 18:35:04;;;;;;;;;8.33;5.67;;;;;;;;5000820;28;45498;-58
2023/04/10 18:37:29;;;;;;;;;4.00;3.33;;;;;;;;5007173;28;46822;-53
2023/04/10 18:39:55;;;;;;;;;5.00;4.67;;;;;;;;4998510;28;45258;-53
2023/04/10 18:42:20;;;;;;;;;5.67;5.67;;;;;;;;4997941;28;45482;-53
2023/04/10 18:44:45;;;;;;;;;6.33;5.00;;;;;;;;5001538;28;45441;-54
2023/04/10 18:47:10;;;;;;;;;7.33;5.67;;;;;;;;4997924;28;45458;-55
2023/04/10 18:49:36;;;;;;;;;7.00;5.00;;;;;;;;4999974;28;45439;-55
2023/04/10 18:52:01;;;;;;;;;6.67;5.67;;;;;;;;5009100;28;45384;-54
2023/04/10 18:54:26;;;;;;;;;5.33;5.33;;;;;;;;5002007;28;45367;-55
2023/04/10 18:56:51;;;;;;;;;4.67;4.00;;;;;;;;4968933;28;46242;-54
2023/04/10 18:59:16;;;;;;;;;8.67;6.67;;;;;;;;5000179;28;45279;-54
2023/04/10 19:01:41;;;;;;;;;6.00;6.00;;;;;;;;4999708;28;45336;-55
2023/04/10 19:04:07;;;;;;;;;8.67;7.33;;;;;;;;4995569;28;48316;-55
2023/04/10 19:06:33;;;;;;;;;4.33;3.00;;;;;;;;4998955;28;46401;-56
2023/04/10 19:08:59;;;;;;;;;8.00;6.67;;;;;;;;5003981;28;45537;-55
2023/04/10 19:11:24;;;;;;;;;10.00;9.00;;;;;;;;5001236;28;45434;-55
2023/04/10 19:13:49;;;;;;;;;7.00;6.33;;;;;;;;5001468;28;45614;-56
2023/04/10 19:16:18;;;;;;;;;6.33;6.00;;;;;;;;4995921;28;45363;-55
2023/04/10 19:18:43;;;;;;;;;7.33;6.00;;;;;;;;4999626;28;45569;-55
2023/04/10 19:21:08;;;;;;;;;8.00;6.33;;;;;;;;5000080;28;45426;-56
2023/04/10 19:23:33;;;;;;;;;6.33;6.00;;;;;;;;5003521;28;45647;-55
2023/04/10 19:25:59;;;;;;;;;4.67;4.67;;;;;;;;4999686;28;45401;-54
2023/04/10 19:28:24;;;;;;;;;6.67;6.33;;;;;;;;4997483;28;45181;-55